sensor_id;sensor_type;location;lat;lon;timestamp;P1;durP1;ratioP1;P2;durP2;ratioP2
27161;SDS011;54464;50.558;9.704;2022-09-21T00:02:25;59.27;;;8.13;;
27161;SDS011;54464;50.558;9.704;2022-09-21T00:04:52;96.00;;;9.00;;
27161;SDS011;54464;50.558;9.704;2022-09-21T00:07:18;38.40;;;7.27;;
27161;SDS011;54464;50.558;9.704;2022-09-21T00:09:44;28.67;;;7.40;;
27161;SDS011;54464;50.558;9.704;2022-09-21T00:12:09;76.90;;;9.57;;
27161;SDS011;54464;50.558;9.704;2022-09-21T00:14:36;65.33;;;7.67;;
27161;SDS011;54464;50.558;9.704;2022-09-21T00:17:02;23.20;;;7.80;;
27161;SDS011;54464;50.558;9.704;2022-09-21T00:19:27;23.73;;;7.30;;
27161;SDS011;54464;50.558;9.704;2022-09-21T00:21:53;98.50;;;9.53;;
27161;SDS011;54464;50.558;9.704;2022-09-21T00:24:20;69.80;;;8.83;;
27161;SDS011;54464;50.558;9.704;2022-09-21T00:26:45;90.60;;;9.17;;
27161;SDS011;54464;50.558;9.704;2022-09-21T00:29:11;41.10;;;7.60;;
27161;SDS011;54464;50.558;9.704;2022-09-21T00:31:38;67.80;;;10.00;;
27161;SDS011;54464;50.558;9.704;2022-09-21T00:34:04;90.20;;;9.40;;
27161;SDS011;54464;50.558;9.704;2022-09-21T00:36:32;171.77;;;9.60;;
27161;SDS011;54464;50.558;9.704;2022-09-21T00:38:59;100.53;;;8.67;;
27161;SDS011;54464;50.558;9.704;2022-09-21T00:41:28;143.40;;;8.93;;
27161;SDS011;54464;50.558;9.704;2022-09-21T00:44:15;187.20;;;11.87;;
27161;SDS011;54464;50.558;9.704;2022-09-21T00:46:44;62.67;;;9.13;;
27161;SDS011;54464;50.558;9.704;2022-09-21T00:49:12;17.07;;;6.70;;
27161;SDS011;54464;50.558;9.704;2022-09-21T00:51:38;9.87;;;6.07;;
27161;SDS011;54464;50.558;9.704;2022-09-21T00:54:06;59.77;;;7.57;;
27161;SDS011;54464;50.558;9.704;2022-09-21T00:56:37;42.00;;;7.00;;
27161;SDS011;54464;50.558;9.704;2022-09-21T00:59:03;76.97;;;8.23;;
27161;SDS011;54464;50.558;9.704;2022-09-21T01:01:29;16.90;;;6.93;;
27161;SDS011;54464;50.558;9.704;2022-09-21T01:03:55;36.37;;;8.50;;
27161;SDS011;54464;50.558;9.704;2022-09-21T01:06:22;110.50;;;8.77;;
27161;SDS011;54464;50.558;9.704;2022-09-21T01:08:52;65.50;;;8.10;;
27161;SDS011;54464;50.558;9.704;2022-09-21T01:16:29;40.70;;;8.10;;
27161;SDS011;54464;50.558;9.704;2022-09-21T01:21:36;67.73;;;9.63;;
27161;SDS011;54464;50.558;9.704;2022-09-21T01:29:57;71.10;;;8.97;;
27161;SDS011;54464;50.558;9.704;2022-09-21T01:32:43;69.47;;;9.77;;
27161;SDS011;54464;50.558;9.704;2022-09-21T01:35:13;9.03;;;7.97;;
27161;SDS011;54464;50.558;9.704;2022-09-21T01:37:46;89.27;;;10.10;;
27161;SDS011;54464;50.558;9.704;2022-09-21T01:40:27;87.97;;;11.10;;
27161;SDS011;54464;50.558;9.704;2022-09-21T01:42:57;70.67;;;9.33;;
27161;SDS011;54464;50.558;9.704;2022-09-21T01:45:33;32.30;;;9.00;;
27161;SDS011;54464;50.558;9.704;2022-09-21T01:48:05;82.73;;;9.80;;
27161;SDS011;54464;50.558;9.704;2022-09-21T01:50:34;39.10;;;8.33;;
27161;SDS011;54464;50.558;9.704;2022-09-21T01:53:12;33.00;;;9.23;;
27161;SDS011;54464;50.558;9.704;2022-09-21T01:56:12;13.77;;;7.87;;
27161;SDS011;54464;50.558;9.704;2022-09-21T01:58:41;9.87;;;7.27;;
27161;SDS011;54464;50.558;9.704;2022-09-21T02:01:26;36.57;;;8.57;;
27161;SDS011;54464;50.558;9.704;2022-09-21T02:04:02;34.87;;;8.40;;
27161;SDS011;54464;50.558;9.704;2022-09-21T02:06:32;43.30;;;8.47;;
27161;SDS011;54464;50.558;9.704;2022-09-21T02:08:57;9.93;;;6.53;;
27161;SDS011;54464;50.558;9.704;2022-09-21T02:11:24;149.17;;;11.53;;
27161;SDS011;54464;50.558;9.704;2022-09-21T02:13:50;19.00;;;7.97;;
27161;SDS011;54464;50.558;9.704;2022-09-21T02:32:29;205.57;;;10.47;;
27161;SDS011;54464;50.558;9.704;2022-09-21T02:38:30;70.97;;;8.90;;
27161;SDS011;54464;50.558;9.704;2022-09-21T02:41:14;59.77;;;8.87;;
27161;SDS011;54464;50.558;9.704;2022-09-21T02:43:48;36.63;;;7.83;;
27161;SDS011;54464;50.558;9.704;2022-09-21T02:49:06;52.00;;;7.57;;
27161;SDS011;54464;50.558;9.704;2022-09-21T02:51:42;92.57;;;10.30;;
27161;SDS011;54464;50.558;9.704;2022-09-21T02:54:12;45.80;;;8.00;;
27161;SDS011;54464;50.558;9.704;2022-09-21T02:56:40;78.80;;;9.13;;
27161;SDS011;54464;50.558;9.704;2022-09-21T02:59:06;118.43;;;9.80;;
27161;SDS011;54464;50.558;9.704;2022-09-21T03:01:32;11.17;;;6.73;;
27161;SDS011;54464;50.558;9.704;2022-09-21T03:03:58;7.53;;;5.90;;
27161;SDS011;54464;50.558;9.704;2022-09-21T03:06:24;42.20;;;6.87;;
27161;SDS011;54464;50.558;9.704;2022-09-21T03:08:50;46.37;;;6.87;;
27161;SDS011;54464;50.558;9.704;2022-09-21T03:11:16;14.80;;;6.63;;
27161;SDS011;54464;50.558;9.704;2022-09-21T03:13:43;107.20;;;9.13;;
27161;SDS011;54464;50.558;9.704;2022-09-21T03:16:09;32.77;;;7.40;;
27161;SDS011;54464;50.558;9.704;2022-09-21T03:18:36;15.87;;;6.93;;
27161;SDS011;54464;50.558;9.704;2022-09-21T03:21:02;16.73;;;6.50;;
27161;SDS011;54464;50.558;9.704;2022-09-21T03:23:28;29.47;;;7.47;;
27161;SDS011;54464;50.558;9.704;2022-09-21T03:25:53;10.13;;;6.70;;
27161;SDS011;54464;50.558;9.704;2022-09-21T03:28:19;27.17;;;6.53;;
27161;SDS011;54464;50.558;9.704;2022-09-21T03:30:48;67.87;;;7.00;;
27161;SDS011;54464;50.558;9.704;2022-09-21T03:33:17;88.27;;;9.37;;
27161;SDS011;54464;50.558;9.704;2022-09-21T03:35:43;121.13;;;8.93;;
27161;SDS011;54464;50.558;9.704;2022-09-21T03:38:09;148.47;;;9.13;;
27161;SDS011;54464;50.558;9.704;2022-09-21T03:40:35;67.23;;;7.00;;
27161;SDS011;54464;50.558;9.704;2022-09-21T03:43:01;11.43;;;6.33;;
27161;SDS011;54464;50.558;9.704;2022-09-21T03:45:27;38.00;;;8.53;;
27161;SDS011;54464;50.558;9.704;2022-09-21T03:47:53;33.53;;;6.43;;
27161;SDS011;54464;50.558;9.704;2022-09-21T03:50:21;13.90;;;6.50;;
27161;SDS011;54464;50.558;9.704;2022-09-21T03:52:46;41.30;;;6.77;;
27161;SDS011;54464;50.558;9.704;2022-09-21T03:55:12;13.17;;;6.43;;
27161;SDS011;54464;50.558;9.704;2022-09-21T03:57:38;30.20;;;7.13;;
27161;SDS011;54464;50.558;9.704;2022-09-21T04:00:04;39.87;;;6.77;;
27161;SDS011;54464;50.558;9.704;2022-09-21T04:02:32;24.23;;;6.37;;
27161;SDS011;54464;50.558;9.704;2022-09-21T04:04:58;22.67;;;6.67;;
27161;SDS011;54464;50.558;9.704;2022-09-21T04:07:24;113.13;;;8.37;;
27161;SDS011;54464;50.558;9.704;2022-09-21T04:09:50;37.73;;;8.23;;
27161;SDS011;54464;50.558;9.704;2022-09-21T04:12:16;81.27;;;8.63;;
27161;SDS011;54464;50.558;9.704;2022-09-21T04:14:46;11.87;;;7.23;;
27161;SDS011;54464;50.558;9.704;2022-09-21T04:17:11;11.03;;;6.80;;
27161;SDS011;54464;50.558;9.704;2022-09-21T04:19:37;14.87;;;6.60;;
27161;SDS011;54464;50.558;9.704;2022-09-21T04:22:02;96.30;;;11.20;;
27161;SDS011;54464;50.558;9.704;2022-09-21T04:24:28;16.53;;;6.60;;
27161;SDS011;54464;50.558;9.704;2022-09-21T04:26:55;16.90;;;6.83;;
27161;SDS011;54464;50.558;9.704;2022-09-21T04:29:20;17.00;;;6.60;;
27161;SDS011;54464;50.558;9.704;2022-09-21T04:31:46;27.00;;;6.87;;
27161;SDS011;54464;50.558;9.704;2022-09-21T04:34:12;117.57;;;10.30;;
27161;SDS011;54464;50.558;9.704;2022-09-21T04:36:37;83.10;;;9.60;;
27161;SDS011;54464;50.558;9.704;2022-09-21T04:39:04;28.60;;;7.00;;
27161;SDS011;54464;50.558;9.704;2022-09-21T04:41:30;133.43;;;8.87;;
27161;SDS011;54464;50.558;9.704;2022-09-21T04:43:56;35.27;;;7.40;;
27161;SDS011;54464;50.558;9.704;2022-09-21T04:46:21;51.07;;;7.43;;
27161;SDS011;54464;50.558;9.704;2022-09-21T04:48:47;9.47;;;5.63;;
27161;SDS011;54464;50.558;9.704;2022-09-21T04:51:14;32.57;;;6.37;;
27161;SDS011;54464;50.558;9.704;2022-09-21T04:53:41;34.47;;;6.80;;
27161;SDS011;54464;50.558;9.704;2022-09-21T04:56:08;32.93;;;6.47;;
27161;SDS011;54464;50.558;9.704;2022-09-21T04:58:37;29.23;;;7.27;;
27161;SDS011;54464;50.558;9.704;2022-09-21T05:01:03;127.43;;;9.87;;
27161;SDS011;54464;50.558;9.704;2022-09-21T05:03:30;31.33;;;6.30;;
27161;SDS011;54464;50.558;9.704;2022-09-21T05:05:56;213.13;;;11.67;;
27161;SDS011;54464;50.558;9.704;2022-09-21T05:08:23;148.10;;;9.90;;
27161;SDS011;54464;50.558;9.704;2022-09-21T05:11:09;271.63;;;12.17;;
27161;SDS011;54464;50.558;9.704;2022-09-21T05:13:37;38.13;;;7.47;;
27161;SDS011;54464;50.558;9.704;2022-09-21T05:16:06;98.20;;;8.67;;
27161;SDS011;54464;50.558;9.704;2022-09-21T05:18:32;31.10;;;7.00;;
27161;SDS011;54464;50.558;9.704;2022-09-21T05:20:59;127.90;;;9.23;;
27161;SDS011;54464;50.558;9.704;2022-09-21T05:23:26;123.50;;;10.97;;
27161;SDS011;54464;50.558;9.704;2022-09-21T05:25:54;89.70;;;8.63;;
27161;SDS011;54464;50.558;9.704;2022-09-21T05:28:20;10.17;;;7.23;;
27161;SDS011;54464;50.558;9.704;2022-09-21T05:31:34;13.90;;;7.10;;
27161;SDS011;54464;50.558;9.704;2022-09-21T05:33:36;13.70;;;6.70;;
27161;SDS011;54464;50.558;9.704;2022-09-21T05:38:58;9.63;;;6.33;;
27161;SDS011;54464;50.558;9.704;2022-09-21T05:41:24;65.70;;;9.03;;
27161;SDS011;54464;50.558;9.704;2022-09-21T05:43:50;79.50;;;9.87;;
27161;SDS011;54464;50.558;9.704;2022-09-21T05:46:21;111.77;;;10.30;;
27161;SDS011;54464;50.558;9.704;2022-09-21T05:48:59;59.53;;;7.83;;
27161;SDS011;54464;50.558;9.704;2022-09-21T05:54:28;76.37;;;7.60;;
27161;SDS011;54464;50.558;9.704;2022-09-21T06:00:15;110.53;;;10.00;;
27161;SDS011;54464;50.558;9.704;2022-09-21T06:02:47;22.37;;;8.10;;
27161;SDS011;54464;50.558;9.704;2022-09-21T06:05:15;197.50;;;12.50;;
27161;SDS011;54464;50.558;9.704;2022-09-21T06:07:41;65.90;;;10.60;;
27161;SDS011;54464;50.558;9.704;2022-09-21T06:10:08;85.00;;;10.67;;
27161;SDS011;54464;50.558;9.704;2022-09-21T06:12:36;77.50;;;10.87;;
27161;SDS011;54464;50.558;9.704;2022-09-21T06:15:01;12.50;;;9.07;;
27161;SDS011;54464;50.558;9.704;2022-09-21T06:17:28;56.70;;;9.53;;
27161;SDS011;54464;50.558;9.704;2022-09-21T06:19:53;103.23;;;9.97;;
27161;SDS011;54464;50.558;9.704;2022-09-21T06:24:48;10.13;;;7.33;;
27161;SDS011;54464;50.558;9.704;2022-09-21T06:27:14;31.47;;;7.73;;
27161;SDS011;54464;50.558;9.704;2022-09-21T06:29:39;60.93;;;8.27;;
27161;SDS011;54464;50.558;9.704;2022-09-21T06:32:05;10.97;;;5.90;;
27161;SDS011;54464;50.558;9.704;2022-09-21T06:34:31;26.33;;;7.30;;
27161;SDS011;54464;50.558;9.704;2022-09-21T06:36:56;71.60;;;8.33;;
27161;SDS011;54464;50.558;9.704;2022-09-21T06:39:22;106.87;;;11.17;;
27161;SDS011;54464;50.558;9.704;2022-09-21T06:41:48;61.83;;;11.10;;
27161;SDS011;54464;50.558;9.704;2022-09-21T06:44:13;17.07;;;8.73;;
27161;SDS011;54464;50.558;9.704;2022-09-21T06:46:39;25.20;;;8.37;;
27161;SDS011;54464;50.558;9.704;2022-09-21T06:49:04;185.40;;;13.57;;
27161;SDS011;54464;50.558;9.704;2022-09-21T06:51:30;33.80;;;8.90;;
27161;SDS011;54464;50.558;9.704;2022-09-21T06:53:56;19.20;;;8.40;;
27161;SDS011;54464;50.558;9.704;2022-09-21T06:56:22;40.90;;;8.93;;
27161;SDS011;54464;50.558;9.704;2022-09-21T06:58:49;38.30;;;9.63;;
27161;SDS011;54464;50.558;9.704;2022-09-21T07:01:16;72.77;;;10.60;;
27161;SDS011;54464;50.558;9.704;2022-09-21T07:03:42;202.13;;;13.83;;
27161;SDS011;54464;50.558;9.704;2022-09-21T07:06:08;35.77;;;10.23;;
27161;SDS011;54464;50.558;9.704;2022-09-21T07:08:36;29.40;;;10.07;;
27161;SDS011;54464;50.558;9.704;2022-09-21T07:11:03;108.03;;;12.93;;
27161;SDS011;54464;50.558;9.704;2022-09-21T07:13:30;11.80;;;10.57;;
27161;SDS011;54464;50.558;9.704;2022-09-21T07:15:55;41.63;;;11.40;;
27161;SDS011;54464;50.558;9.704;2022-09-21T07:18:21;47.80;;;11.70;;
27161;SDS011;54464;50.558;9.704;2022-09-21T07:20:47;100.80;;;13.17;;
27161;SDS011;54464;50.558;9.704;2022-09-21T07:23:17;157.13;;;13.60;;
27161;SDS011;54464;50.558;9.704;2022-09-21T07:25:44;12.93;;;11.50;;
27161;SDS011;54464;50.558;9.704;2022-09-21T07:28:14;29.53;;;14.53;;
27161;SDS011;54464;50.558;9.704;2022-09-21T07:30:40;53.60;;;13.97;;
27161;SDS011;54464;50.558;9.704;2022-09-21T07:33:06;35.03;;;13.43;;
27161;SDS011;54464;50.558;9.704;2022-09-21T07:35:32;37.57;;;13.13;;
27161;SDS011;54464;50.558;9.704;2022-09-21T07:37:59;47.27;;;13.13;;
27161;SDS011;54464;50.558;9.704;2022-09-21T07:40:26;43.80;;;12.27;;
27161;SDS011;54464;50.558;9.704;2022-09-21T07:42:55;77.93;;;12.27;;
27161;SDS011;54464;50.558;9.704;2022-09-21T07:45:22;14.87;;;9.77;;
27161;SDS011;54464;50.558;9.704;2022-09-21T07:47:49;15.80;;;9.57;;
27161;SDS011;54464;50.558;9.704;2022-09-21T07:50:18;10.87;;;8.27;;
27161;SDS011;54464;50.558;9.704;2022-09-21T07:52:47;15.70;;;8.73;;
27161;SDS011;54464;50.558;9.704;2022-09-21T07:55:13;21.80;;;11.60;;
27161;SDS011;54464;50.558;9.704;2022-09-21T07:57:39;15.40;;;12.37;;
27161;SDS011;54464;50.558;9.704;2022-09-21T08:00:34;48.37;;;12.43;;
27161;SDS011;54464;50.558;9.704;2022-09-21T08:03:02;36.40;;;13.17;;
27161;SDS011;54464;50.558;9.704;2022-09-21T08:05:28;14.23;;;12.20;;
27161;SDS011;54464;50.558;9.704;2022-09-21T08:07:55;19.33;;;12.30;;
27161;SDS011;54464;50.558;9.704;2022-09-21T08:10:21;35.23;;;12.20;;
27161;SDS011;54464;50.558;9.704;2022-09-21T08:12:48;28.57;;;11.17;;
27161;SDS011;54464;50.558;9.704;2022-09-21T08:15:14;52.47;;;13.37;;
27161;SDS011;54464;50.558;9.704;2022-09-21T08:17:39;16.97;;;13.47;;
27161;SDS011;54464;50.558;9.704;2022-09-21T08:20:05;17.23;;;13.00;;
27161;SDS011;54464;50.558;9.704;2022-09-21T08:22:31;42.20;;;14.70;;
27161;SDS011;54464;50.558;9.704;2022-09-21T08:24:56;44.53;;;15.20;;
27161;SDS011;54464;50.558;9.704;2022-09-21T08:27:22;25.90;;;16.50;;
27161;SDS011;54464;50.558;9.704;2022-09-21T08:29:49;23.27;;;16.17;;
27161;SDS011;54464;50.558;9.704;2022-09-21T08:32:16;26.97;;;18.20;;
27161;SDS011;54464;50.558;9.704;2022-09-21T08:34:41;23.67;;;17.27;;
27161;SDS011;54464;50.558;9.704;2022-09-21T08:37:07;29.83;;;16.77;;
27161;SDS011;54464;50.558;9.704;2022-09-21T08:39:33;18.83;;;16.83;;
27161;SDS011;54464;50.558;9.704;2022-09-21T08:42:03;19.43;;;15.67;;
27161;SDS011;54464;50.558;9.704;2022-09-21T08:44:52;40.57;;;15.07;;
27161;SDS011;54464;50.558;9.704;2022-09-21T08:50:04;24.30;;;15.67;;
27161;SDS011;54464;50.558;9.704;2022-09-21T08:52:57;21.80;;;15.13;;
27161;SDS011;54464;50.558;9.704;2022-09-21T08:55:28;20.40;;;15.57;;
27161;SDS011;54464;50.558;9.704;2022-09-21T08:57:53;19.63;;;14.50;;
27161;SDS011;54464;50.558;9.704;2022-09-21T09:00:19;18.13;;;15.30;;
27161;SDS011;54464;50.558;9.704;2022-09-21T09:07:50;13.60;;;12.20;;
27161;SDS011;54464;50.558;9.704;2022-09-21T09:16:32;13.23;;;11.93;;
27161;SDS011;54464;50.558;9.704;2022-09-21T09:21:42;13.10;;;11.40;;
27161;SDS011;54464;50.558;9.704;2022-09-21T09:24:09;14.63;;;12.77;;
27161;SDS011;54464;50.558;9.704;2022-09-21T09:26:56;15.07;;;13.27;;
27161;SDS011;54464;50.558;9.704;2022-09-21T09:29:32;17.00;;;15.20;;
27161;SDS011;54464;50.558;9.704;2022-09-21T09:32:02;18.67;;;15.13;;
27161;SDS011;54464;50.558;9.704;2022-09-21T09:34:31;15.93;;;14.30;;
27161;SDS011;54464;50.558;9.704;2022-09-21T09:37:11;15.67;;;13.60;;
27161;SDS011;54464;50.558;9.704;2022-09-21T09:39:41;16.53;;;13.60;;
27161;SDS011;54464;50.558;9.704;2022-09-21T09:50:53;17.00;;;15.27;;
27161;SDS011;54464;50.558;9.704;2022-09-21T09:53:03;14.60;;;12.47;;
27161;SDS011;54464;50.558;9.704;2022-09-21T09:55:41;12.80;;;11.40;;
27161;SDS011;54464;50.558;9.704;2022-09-21T09:58:19;12.63;;;11.33;;
27161;SDS011;54464;50.558;9.704;2022-09-21T10:01:06;11.90;;;10.73;;
27161;SDS011;54464;50.558;9.704;2022-09-21T10:03:32;12.60;;;11.33;;
27161;SDS011;54464;50.558;9.704;2022-09-21T10:05:57;11.80;;;10.60;;
27161;SDS011;54464;50.558;9.704;2022-09-21T10:08:27;11.97;;;10.77;;
27161;SDS011;54464;50.558;9.704;2022-09-21T10:11:06;11.30;;;10.13;;
27161;SDS011;54464;50.558;9.704;2022-09-21T10:13:33;10.73;;;9.07;;
27161;SDS011;54464;50.558;9.704;2022-09-21T10:18:51;8.33;;;7.63;;
27161;SDS011;54464;50.558;9.704;2022-09-21T10:21:23;8.50;;;6.57;;
27161;SDS011;54464;50.558;9.704;2022-09-21T10:24:05;6.60;;;6.00;;
27161;SDS011;54464;50.558;9.704;2022-09-21T10:26:46;6.47;;;5.87;;
27161;SDS011;54464;50.558;9.704;2022-09-21T10:29:18;6.40;;;5.40;;
27161;SDS011;54464;50.558;9.704;2022-09-21T10:31:53;5.43;;;4.70;;
27161;SDS011;54464;50.558;9.704;2022-09-21T10:34:32;5.83;;;4.60;;
27161;SDS011;54464;50.558;9.704;2022-09-21T10:37:00;5.90;;;4.00;;
27161;SDS011;54464;50.558;9.704;2022-09-21T10:39:30;5.03;;;3.73;;
27161;SDS011;54464;50.558;9.704;2022-09-21T10:42:04;4.20;;;3.20;;
27161;SDS011;54464;50.558;9.704;2022-09-21T10:50:03;2.77;;;2.57;;
27161;SDS011;54464;50.558;9.704;2022-09-21T10:52:44;3.90;;;1.90;;
27161;SDS011;54464;50.558;9.704;2022-09-21T10:55:17;2.77;;;1.87;;
27161;SDS011;54464;50.558;9.704;2022-09-21T10:57:46;2.60;;;1.00;;
27161;SDS011;54464;50.558;9.704;2022-09-21T11:00:25;3.00;;;0.90;;
27161;SDS011;54464;50.558;9.704;2022-09-21T11:02:55;2.20;;;1.40;;
27161;SDS011;54464;50.558;9.704;2022-09-21T11:05:35;2.47;;;1.40;;
27161;SDS011;54464;50.558;9.704;2022-09-21T11:08:15;1.33;;;1.10;;
27161;SDS011;54464;50.558;9.704;2022-09-21T11:11:06;2.40;;;1.30;;
27161;SDS011;54464;50.558;9.704;2022-09-21T11:22:26;1.33;;;0.90;;
27161;SDS011;54464;50.558;9.704;2022-09-21T11:25:14;1.97;;;1.10;;
27161;SDS011;54464;50.558;9.704;2022-09-21T11:27:46;2.40;;;1.20;;
27161;SDS011;54464;50.558;9.704;2022-09-21T11:30:40;3.77;;;1.10;;
27161;SDS011;54464;50.558;9.704;2022-09-21T11:39:03;0.80;;;0.80;;
27161;SDS011;54464;50.558;9.704;2022-09-21T11:44:52;2.07;;;0.80;;
27161;SDS011;54464;50.558;9.704;2022-09-21T11:57:53;1.37;;;0.73;;
27161;SDS011;54464;50.558;9.704;2022-09-21T12:00:29;1.43;;;0.67;;
27161;SDS011;54464;50.558;9.704;2022-09-21T12:03:19;2.50;;;0.77;;
27161;SDS011;54464;50.558;9.704;2022-09-21T12:19:51;1.13;;;0.70;;
27161;SDS011;54464;50.558;9.704;2022-09-21T12:25:13;1.27;;;0.77;;
27161;SDS011;54464;50.558;9.704;2022-09-21T12:30:31;1.30;;;0.70;;
27161;SDS011;54464;50.558;9.704;2022-09-21T12:35:52;1.57;;;0.80;;
27161;SDS011;54464;50.558;9.704;2022-09-21T12:38:30;1.33;;;0.70;;
27161;SDS011;54464;50.558;9.704;2022-09-21T12:41:13;1.10;;;0.77;;
27161;SDS011;54464;50.558;9.704;2022-09-21T12:43:59;1.50;;;0.60;;
27161;SDS011;54464;50.558;9.704;2022-09-21T12:46:35;1.30;;;0.90;;
27161;SDS011;54464;50.558;9.704;2022-09-21T12:49:11;0.90;;;0.60;;
27161;SDS011;54464;50.558;9.704;2022-09-21T12:51:49;1.37;;;0.70;;
27161;SDS011;54464;50.558;9.704;2022-09-21T13:00:02;1.40;;;0.60;;
27161;SDS011;54464;50.558;9.704;2022-09-21T13:02:33;1.97;;;0.53;;
27161;SDS011;54464;50.558;9.704;2022-09-21T13:13:24;3.13;;;0.60;;
27161;SDS011;54464;50.558;9.704;2022-09-21T13:16:24;0.77;;;0.50;;
27161;SDS011;54464;50.558;9.704;2022-09-21T13:18:53;1.17;;;0.87;;
27161;SDS011;54464;50.558;9.704;2022-09-21T13:21:28;1.90;;;0.70;;
27161;SDS011;54464;50.558;9.704;2022-09-21T13:23:57;1.13;;;0.40;;
27161;SDS011;54464;50.558;9.704;2022-09-21T13:26:30;1.03;;;0.60;;
27161;SDS011;54464;50.558;9.704;2022-09-21T13:34:38;1.43;;;0.60;;
27161;SDS011;54464;50.558;9.704;2022-09-21T13:47:46;0.70;;;0.60;;
27161;SDS011;54464;50.558;9.704;2022-09-21T13:52:50;1.57;;;0.50;;
27161;SDS011;54464;50.558;9.704;2022-09-21T13:55:27;2.13;;;0.53;;
27161;SDS011;54464;50.558;9.704;2022-09-21T13:57:57;1.23;;;0.60;;
27161;SDS011;54464;50.558;9.704;2022-09-21T14:03:21;1.73;;;0.50;;
27161;SDS011;54464;50.558;9.704;2022-09-21T14:05:48;2.07;;;1.07;;
27161;SDS011;54464;50.558;9.704;2022-09-21T14:08:33;1.77;;;0.70;;
27161;SDS011;54464;50.558;9.704;2022-09-21T14:11:06;1.80;;;0.80;;
27161;SDS011;54464;50.558;9.704;2022-09-21T14:13:47;2.30;;;0.60;;
27161;SDS011;54464;50.558;9.704;2022-09-21T14:32:44;2.90;;;0.70;;
27161;SDS011;54464;50.558;9.704;2022-09-21T14:35:32;1.73;;;0.63;;
27161;SDS011;54464;50.558;9.704;2022-09-21T14:38:06;0.90;;;0.53;;
27161;SDS011;54464;50.558;9.704;2022-09-21T14:40:38;1.10;;;0.80;;
27161;SDS011;54464;50.558;9.704;2022-09-21T14:43:13;1.77;;;0.70;;
27161;SDS011;54464;50.558;9.704;2022-09-21T14:54:02;2.37;;;0.80;;
27161;SDS011;54464;50.558;9.704;2022-09-21T14:56:54;3.27;;;0.53;;
27161;SDS011;54464;50.558;9.704;2022-09-21T14:59:46;1.50;;;0.60;;
27161;SDS011;54464;50.558;9.704;2022-09-21T15:02:30;1.57;;;0.80;;
27161;SDS011;54464;50.558;9.704;2022-09-21T15:07:58;3.33;;;1.70;;
27161;SDS011;54464;50.558;9.704;2022-09-21T15:18:41;1.23;;;1.10;;
27161;SDS011;54464;50.558;9.704;2022-09-21T15:21:24;1.37;;;0.73;;
27161;SDS011;54464;50.558;9.704;2022-09-21T15:23:51;4.57;;;3.03;;
27161;SDS011;54464;50.558;9.704;2022-09-21T15:26:22;3.67;;;1.20;;
27161;SDS011;54464;50.558;9.704;2022-09-21T15:28:58;1.23;;;0.90;;
27161;SDS011;54464;50.558;9.704;2022-09-21T15:31:36;3.97;;;2.17;;
27161;SDS011;54464;50.558;9.704;2022-09-21T15:34:04;1.97;;;1.07;;
27161;SDS011;54464;50.558;9.704;2022-09-21T15:36:35;2.03;;;0.80;;
27161;SDS011;54464;50.558;9.704;2022-09-21T15:39:03;1.83;;;0.60;;
27161;SDS011;54464;50.558;9.704;2022-09-21T15:41:42;2.80;;;0.97;;
27161;SDS011;54464;50.558;9.704;2022-09-21T15:46:49;1.17;;;0.70;;
27161;SDS011;54464;50.558;9.704;2022-09-21T15:49:17;2.70;;;0.80;;
27161;SDS011;54464;50.558;9.704;2022-09-21T15:51:54;2.57;;;0.80;;
27161;SDS011;54464;50.558;9.704;2022-09-21T15:54:28;2.40;;;0.80;;
27161;SDS011;54464;50.558;9.704;2022-09-21T15:56:57;2.23;;;0.70;;
27161;SDS011;54464;50.558;9.704;2022-09-21T15:59:28;1.47;;;0.77;;
27161;SDS011;54464;50.558;9.704;2022-09-21T16:01:56;1.23;;;0.60;;
27161;SDS011;54464;50.558;9.704;2022-09-21T16:04:25;1.77;;;0.90;;
27161;SDS011;54464;50.558;9.704;2022-09-21T16:07:05;2.73;;;1.77;;
27161;SDS011;54464;50.558;9.704;2022-09-21T16:09:47;3.03;;;0.90;;
27161;SDS011;54464;50.558;9.704;2022-09-21T16:14:59;2.13;;;0.80;;
27161;SDS011;54464;50.558;9.704;2022-09-21T16:17:34;2.43;;;0.80;;
27161;SDS011;54464;50.558;9.704;2022-09-21T16:22:38;2.60;;;1.00;;
27161;SDS011;54464;50.558;9.704;2022-09-21T16:28:03;2.77;;;0.70;;
27161;SDS011;54464;50.558;9.704;2022-09-21T16:30:40;1.23;;;0.80;;
27161;SDS011;54464;50.558;9.704;2022-09-21T16:36:50;2.67;;;0.90;;
27161;SDS011;54464;50.558;9.704;2022-09-21T16:38:53;1.87;;;1.13;;
27161;SDS011;54464;50.558;9.704;2022-09-21T16:41:19;3.13;;;1.50;;
27161;SDS011;54464;50.558;9.704;2022-09-21T16:43:46;1.83;;;1.07;;
27161;SDS011;54464;50.558;9.704;2022-09-21T16:46:14;1.37;;;0.90;;
27161;SDS011;54464;50.558;9.704;2022-09-21T16:48:42;2.63;;;0.90;;
27161;SDS011;54464;50.558;9.704;2022-09-21T16:51:12;1.67;;;0.90;;
27161;SDS011;54464;50.558;9.704;2022-09-21T16:53:51;2.73;;;1.10;;
27161;SDS011;54464;50.558;9.704;2022-09-21T16:56:17;3.07;;;1.03;;
27161;SDS011;54464;50.558;9.704;2022-09-21T16:58:43;3.63;;;1.03;;
27161;SDS011;54464;50.558;9.704;2022-09-21T17:01:13;1.67;;;0.90;;
27161;SDS011;54464;50.558;9.704;2022-09-21T17:03:42;1.63;;;1.10;;
27161;SDS011;54464;50.558;9.704;2022-09-21T17:06:19;3.23;;;1.20;;
27161;SDS011;54464;50.558;9.704;2022-09-21T17:08:46;1.87;;;1.23;;
27161;SDS011;54464;50.558;9.704;2022-09-21T17:11:16;3.20;;;1.50;;
27161;SDS011;54464;50.558;9.704;2022-09-21T17:13:49;2.07;;;1.10;;
27161;SDS011;54464;50.558;9.704;2022-09-21T17:16:15;2.77;;;1.97;;
27161;SDS011;54464;50.558;9.704;2022-09-21T17:18:42;2.37;;;2.00;;
27161;SDS011;54464;50.558;9.704;2022-09-21T17:21:09;2.47;;;1.90;;
27161;SDS011;54464;50.558;9.704;2022-09-21T17:23:35;1.83;;;1.73;;
27161;SDS011;54464;50.558;9.704;2022-09-21T17:26:01;2.57;;;1.30;;
27161;SDS011;54464;50.558;9.704;2022-09-21T17:28:27;2.27;;;1.30;;
27161;SDS011;54464;50.558;9.704;2022-09-21T17:30:53;2.43;;;1.50;;
27161;SDS011;54464;50.558;9.704;2022-09-21T17:33:19;3.90;;;3.50;;
27161;SDS011;54464;50.558;9.704;2022-09-21T17:35:45;3.37;;;2.93;;
27161;SDS011;54464;50.558;9.704;2022-09-21T17:38:12;4.93;;;3.33;;
27161;SDS011;54464;50.558;9.704;2022-09-21T17:40:38;4.13;;;3.10;;
27161;SDS011;54464;50.558;9.704;2022-09-21T17:46:18;3.10;;;2.40;;
27161;SDS011;54464;50.558;9.704;2022-09-21T17:48:47;3.70;;;1.77;;
27161;SDS011;54464;50.558;9.704;2022-09-21T17:51:13;3.20;;;1.70;;
27161;SDS011;54464;50.558;9.704;2022-09-21T17:53:59;3.33;;;1.60;;
27161;SDS011;54464;50.558;9.704;2022-09-21T18:04:02;2.90;;;2.20;;
27161;SDS011;54464;50.558;9.704;2022-09-21T18:06:28;2.17;;;1.97;;
27161;SDS011;54464;50.558;9.704;2022-09-21T18:08:55;2.60;;;2.10;;
27161;SDS011;54464;50.558;9.704;2022-09-21T18:14:16;2.13;;;1.60;;
27161;SDS011;54464;50.558;9.704;2022-09-21T18:25:31;2.73;;;1.80;;
27161;SDS011;54464;50.558;9.704;2022-09-21T18:28:01;3.13;;;1.90;;
27161;SDS011;54464;50.558;9.704;2022-09-21T18:30:36;2.30;;;1.90;;
27161;SDS011;54464;50.558;9.704;2022-09-21T18:33:18;2.53;;;2.10;;
27161;SDS011;54464;50.558;9.704;2022-09-21T18:35:59;2.37;;;1.77;;
27161;SDS011;54464;50.558;9.704;2022-09-21T18:38:57;3.33;;;1.90;;
27161;SDS011;54464;50.558;9.704;2022-09-21T18:41:39;3.47;;;2.00;;
27161;SDS011;54464;50.558;9.704;2022-09-21T18:46:52;2.47;;;2.07;;
27161;SDS011;54464;50.558;9.704;2022-09-21T18:55:07;2.20;;;2.00;;
27161;SDS011;54464;50.558;9.704;2022-09-21T18:57:43;3.20;;;2.20;;
27161;SDS011;54464;50.558;9.704;2022-09-21T19:00:10;2.67;;;2.17;;
27161;SDS011;54464;50.558;9.704;2022-09-21T19:02:37;2.60;;;2.20;;
27161;SDS011;54464;50.558;9.704;2022-09-21T19:05:03;3.83;;;2.30;;